createdAt,value
2023-03-05T00:00:34.774Z,5.22
2023-03-05T00:03:05.034Z,4.78
2023-03-05T00:05:35.258Z,8.00
2023-03-05T00:08:05.702Z,3.75
2023-03-05T00:10:35.973Z,4.55
2023-03-05T00:13:06.302Z,7.20
2023-03-05T00:15:42.458Z,4.93
2023-03-05T00:18:12.642Z,3.03
2023-03-05T00:20:43.348Z,2.92
2023-03-05T00:23:13.752Z,3.85
2023-03-05T00:25:44.392Z,2.58
2023-03-05T00:28:14.767Z,6.22
2023-03-05T00:30:45.019Z,6.32
2023-03-05T00:33:15.317Z,2.65
2023-03-05T00:35:46.934Z,6.00
2023-03-05T00:38:17.322Z,4.43
2023-03-05T00:40:51.484Z,3.80
2023-03-05T00:43:21.771Z,6.70
2023-03-05T00:45:52.023Z,6.18
2023-03-05T00:48:25.838Z,4.45
2023-03-05T00:50:56.024Z,3.67
2023-03-05T00:53:26.274Z,8.70
2023-03-05T00:55:56.436Z,6.20
2023-03-05T00:58:27.103Z,5.88
2023-03-05T01:01:01.760Z,4.85
2023-03-05T01:03:33.441Z,7.15
2023-03-05T01:06:10.572Z,4.55
2023-03-05T01:11:12.093Z,9.07
2023-03-05T01:13:42.310Z,5.03
2023-03-05T01:16:12.628Z,7.07
2023-03-05T01:18:42.998Z,10.68
2023-03-05T01:21:13.282Z,10.70
2023-03-05T01:23:43.395Z,5.75
2023-03-05T01:26:13.608Z,7.00
2023-03-05T01:28:43.740Z,6.88
2023-03-05T01:34:54.424Z,5.43
2023-03-05T01:37:24.586Z,3.90
2023-03-05T01:39:54.933Z,3.70
2023-03-05T01:42:25.166Z,3.92
2023-03-05T01:45:07.979Z,2.03
2023-03-05T01:47:38.309Z,9.20
2023-03-05T01:50:13.136Z,5.78
2023-03-05T01:52:49.031Z,7.32
2023-03-05T01:55:22.809Z,5.28
2023-03-05T01:57:59.889Z,6.57
2023-03-05T02:00:35.159Z,2.38
2023-03-05T02:03:09.953Z,2.80
2023-03-05T02:05:43.421Z,2.45
2023-03-05T02:08:16.559Z,4.20
2023-03-05T02:10:50.320Z,2.80
2023-03-05T02:13:25.634Z,2.85
2023-03-05T02:15:58.336Z,3.25
2023-03-05T02:18:28.998Z,3.03
2023-03-05T02:21:09.922Z,4.80
2023-03-05T02:23:40.479Z,2.40
2023-03-05T02:26:11.602Z,2.63
2023-03-05T02:28:47.585Z,1.73
2023-03-05T02:31:21.232Z,1.83
2023-03-05T02:33:53.012Z,1.88
2023-03-05T02:36:23.542Z,1.25
2023-03-05T02:38:54.234Z,1.45
2023-03-05T02:41:24.960Z,2.28
2023-03-05T02:43:55.130Z,3.08
2023-03-05T02:46:25.352Z,2.58
2023-03-05T02:48:56.230Z,2.88
2023-03-05T02:51:26.382Z,1.67
2023-03-05T02:53:56.640Z,1.80
2023-03-05T02:56:26.938Z,2.10
2023-03-05T02:58:57.079Z,5.25
2023-03-05T03:01:28.579Z,5.25
2023-03-05T03:03:59.163Z,6.88
2023-03-05T03:06:29.462Z,5.10
2023-03-05T03:08:59.649Z,4.20
2023-03-05T03:11:29.832Z,5.28
2023-03-05T03:14:00.825Z,4.80
2023-03-05T03:16:31.521Z,6.07
2023-03-05T03:19:01.697Z,5.40
2023-03-05T03:21:32.124Z,4.25
2023-03-05T03:24:02.353Z,3.95
2023-03-05T03:26:32.602Z,2.67
2023-03-05T03:29:02.770Z,3.47
2023-03-05T03:31:33.047Z,4.15
2023-03-05T03:34:03.312Z,4.13
2023-03-05T03:36:34.563Z,4.50
2023-03-05T03:39:06.184Z,6.38
2023-03-05T03:41:41.355Z,3.58
2023-03-05T03:44:11.912Z,3.50
2023-03-05T03:46:42.245Z,4.05
2023-03-05T03:49:20.315Z,4.90
2023-03-05T03:51:52.591Z,2.30
2023-03-05T03:54:23.285Z,2.10
2023-03-05T03:56:53.611Z,1.98
2023-03-05T03:59:23.966Z,1.90
2023-03-05T04:01:54.119Z,3.25
2023-03-05T04:04:26.785Z,1.90
2023-03-05T04:06:57.518Z,2.05
2023-03-05T04:09:27.911Z,2.22
2023-03-05T04:11:58.221Z,1.67
2023-03-05T04:14:28.403Z,1.80
2023-03-05T04:16:58.670Z,1.58
2023-03-05T04:19:30.806Z,1.20
2023-03-05T04:22:01.098Z,1.63
2023-03-05T04:24:31.353Z,2.25
2023-03-05T04:27:01.672Z,3.10
2023-03-05T04:29:32.072Z,3.05
2023-03-05T04:32:02.751Z,2.40
2023-03-05T04:34:33.456Z,1.80
2023-03-05T04:37:04.304Z,2.05
2023-03-05T04:39:34.656Z,1.55
2023-03-05T04:42:04.955Z,1.13
2023-03-05T04:44:35.169Z,1.55
2023-03-05T04:47:05.566Z,0.88
2023-03-05T04:49:35.686Z,1.17
2023-03-05T04:52:05.873Z,1.20
2023-03-05T04:54:36.092Z,1.40
2023-03-05T04:57:06.786Z,0.95
2023-03-05T04:59:37.931Z,0.98
2023-03-05T05:02:08.524Z,1.05
2023-03-05T05:04:38.858Z,0.50
2023-03-05T05:07:08.987Z,0.60
2023-03-05T05:09:41.399Z,0.70
2023-03-05T05:12:11.745Z,0.63
2023-03-05T05:14:41.935Z,11.23
2023-03-05T05:17:12.099Z,2.22
2023-03-05T05:19:42.334Z,1.20
2023-03-05T05:22:12.567Z,1.02
2023-03-05T05:24:42.870Z,1.50
2023-03-05T05:27:13.196Z,0.90
2023-03-05T05:29:43.347Z,0.90
2023-03-05T05:32:13.517Z,1.83
2023-03-05T05:34:43.676Z,1.77
2023-03-05T05:37:13.870Z,1.15
2023-03-05T05:39:50.496Z,2.30
2023-03-05T05:42:22.566Z,3.58
2023-03-05T05:44:53.554Z,3.20
2023-03-05T05:47:23.669Z,2.30
2023-03-05T05:49:53.872Z,3.13
2023-03-05T05:52:24.023Z,2.42
2023-03-05T05:54:54.414Z,2.72
2023-03-05T05:57:28.532Z,3.08
2023-03-05T05:59:58.829Z,2.83
2023-03-05T06:02:29.071Z,6.40
2023-03-05T06:04:59.290Z,7.63
2023-03-05T06:07:29.518Z,1.90
2023-03-05T06:09:59.723Z,1.73
2023-03-05T06:12:30.066Z,2.20
2023-03-05T06:15:00.176Z,2.22
2023-03-05T06:17:31.155Z,1.45
2023-03-05T06:20:01.556Z,0.93
2023-03-05T06:22:31.968Z,1.42
2023-03-05T06:25:02.292Z,1.10
2023-03-05T06:27:32.634Z,1.48
2023-03-05T06:30:03.261Z,1.45
2023-03-05T06:32:40.844Z,1.25
2023-03-05T06:35:14.802Z,1.80
2023-03-05T06:37:45.162Z,1.65
2023-03-05T06:40:15.592Z,1.58
2023-03-05T06:42:45.837Z,1.50
2023-03-05T06:45:16.662Z,1.35
2023-03-05T06:47:46.943Z,2.13
2023-03-05T06:50:17.264Z,2.03
2023-03-05T06:52:50.060Z,1.80
2023-03-05T06:55:20.172Z,2.38
2023-03-05T06:57:50.434Z,1.38
2023-03-05T07:00:22.309Z,2.03
2023-03-05T07:02:52.498Z,1.58
2023-03-05T07:05:22.734Z,1.27
2023-03-05T07:07:53.293Z,1.75
2023-03-05T07:10:23.995Z,1.65
2023-03-05T07:12:54.176Z,2.15
2023-03-05T07:15:24.407Z,2.58
2023-03-05T07:17:54.949Z,2.05
2023-03-05T07:20:25.268Z,1.58
2023-03-05T07:22:55.744Z,1.60
2023-03-05T07:25:26.564Z,1.90
2023-03-05T07:27:57.404Z,1.92
2023-03-05T07:30:27.750Z,1.40
2023-03-05T07:32:57.948Z,1.60
2023-03-05T07:35:28.722Z,1.30
2023-03-05T07:37:58.911Z,1.17
2023-03-05T07:40:29.253Z,1.42
2023-03-05T07:43:00.439Z,1.88
2023-03-05T07:45:30.712Z,1.35
2023-03-05T07:48:00.853Z,2.63
2023-03-05T07:50:33.198Z,1.30
2023-03-05T07:53:03.741Z,1.77
2023-03-05T07:55:33.936Z,1.40
2023-03-05T07:58:04.171Z,1.30
2023-03-05T08:00:34.349Z,1.25
2023-03-05T08:03:04.846Z,1.95
2023-03-05T08:05:35.214Z,1.50
2023-03-05T08:08:05.595Z,1.90
2023-03-05T08:10:36.853Z,1.67
2023-03-05T08:13:07.341Z,0.85
2023-03-05T08:15:38.703Z,1.25
2023-03-05T08:18:08.941Z,1.20
2023-03-05T08:20:39.778Z,1.20
2023-03-05T08:23:10.029Z,1.20
2023-03-05T08:25:40.309Z,1.05
2023-03-05T08:28:10.493Z,0.80
2023-03-05T08:30:41.392Z,1.58
2023-03-05T08:33:12.206Z,1.75
2023-03-05T08:35:42.655Z,1.40
2023-03-05T08:38:12.826Z,1.40
2023-03-05T08:40:43.526Z,1.48
2023-03-05T08:43:13.770Z,2.33
2023-03-05T08:45:43.953Z,2.20
2023-03-05T08:48:14.152Z,1.10
2023-03-05T08:50:44.438Z,0.90
2023-03-05T08:53:14.977Z,1.23
2023-03-05T08:55:53.387Z,1.08
2023-03-05T08:58:24.953Z,1.40
2023-03-05T09:00:55.408Z,1.38
2023-03-05T09:03:26.172Z,1.02
2023-03-05T09:06:03.909Z,0.80
2023-03-05T09:08:35.322Z,2.50
2023-03-05T09:11:07.728Z,1.70
2023-03-05T09:13:38.324Z,1.17
2023-03-05T09:16:15.287Z,0.90
2023-03-05T09:18:45.703Z,1.65
2023-03-05T09:21:17.650Z,1.80
2023-03-05T09:23:47.851Z,1.08
2023-03-05T09:26:22.238Z,1.73
2023-03-05T09:28:52.393Z,2.55
2023-03-05T09:31:22.665Z,1.23
2023-03-05T09:33:52.831Z,1.58
2023-03-05T09:36:25.947Z,1.25
2023-03-05T09:38:56.694Z,1.48
2023-03-05T09:41:34.675Z,0.90
2023-03-05T09:44:20.248Z,0.80
2023-03-05T09:47:01.540Z,1.67
2023-03-05T09:50:00.258Z,0.90
2023-03-05T09:52:54.972Z,1.23
2023-03-05T09:55:35.998Z,1.48
2023-03-05T09:58:35.744Z,1.35
2023-03-05T10:01:45.252Z,0.77
2023-03-05T10:04:26.935Z,0.93
2023-03-05T10:07:06.049Z,1.20
2023-03-05T10:09:49.655Z,1.00
2023-03-05T10:12:42.485Z,0.90
2023-03-05T10:15:26.810Z,0.52
2023-03-05T10:18:34.379Z,0.95
2023-03-05T10:21:32.781Z,1.15
2023-03-05T10:24:16.338Z,1.05
2023-03-05T10:27:06.964Z,0.93
2023-03-05T10:30:01.230Z,1.77
2023-03-05T10:32:54.818Z,3.50
2023-03-05T10:36:01.847Z,1.40
2023-03-05T10:38:54.998Z,1.40
2023-03-05T10:42:02.648Z,1.70
2023-03-05T10:44:58.731Z,0.80
2023-03-05T10:47:47.651Z,1.65
2023-03-05T10:50:21.702Z,0.70
2023-03-05T10:53:17.199Z,1.13
2023-03-05T10:55:47.422Z,0.90
2023-03-05T10:58:18.162Z,3.42
2023-03-05T11:01:10.264Z,1.25
2023-03-05T11:03:58.367Z,1.50
2023-03-05T11:06:31.098Z,1.45
2023-03-05T11:09:24.754Z,5.72
2023-03-05T11:12:18.026Z,2.80
2023-03-05T11:15:15.068Z,2.15
2023-03-05T11:18:04.120Z,1.13
2023-03-05T11:20:37.110Z,0.65
2023-03-05T11:23:12.055Z,0.70
2023-03-05T11:26:01.293Z,0.82
2023-03-05T11:28:40.586Z,0.88
2023-03-05T11:31:16.922Z,1.40
2023-03-05T11:34:05.428Z,1.23
2023-03-05T11:36:38.970Z,0.95
2023-03-05T11:39:17.853Z,1.13
2023-03-05T11:42:04.454Z,0.80
2023-03-05T11:44:40.006Z,1.08
2023-03-05T11:47:36.519Z,1.00
2023-03-05T11:50:23.778Z,0.73
2023-03-05T11:53:13.145Z,2.88
2023-03-05T11:55:48.846Z,0.80
2023-03-05T11:58:41.335Z,0.75
2023-03-05T12:01:20.722Z,0.77
2023-03-05T12:03:52.497Z,0.90
2023-03-05T12:06:44.431Z,2.05
2023-03-05T12:09:33.982Z,0.70
2023-03-05T12:12:16.842Z,0.85
2023-03-05T12:15:03.033Z,0.80
2023-03-05T12:17:47.386Z,0.98
2023-03-05T12:20:54.929Z,1.30
2023-03-05T12:23:28.154Z,1.92
2023-03-05T12:26:00.217Z,0.70
2023-03-05T12:28:36.354Z,1.20
2023-03-05T12:31:09.515Z,1.20
2023-03-05T12:33:44.160Z,1.10
2023-03-05T12:36:17.421Z,1.50
2023-03-05T12:38:58.035Z,0.75
2023-03-05T12:41:33.031Z,1.80
2023-03-05T12:44:07.020Z,1.52
2023-03-05T12:46:44.863Z,1.08
2023-03-05T12:49:21.373Z,1.05
2023-03-05T12:51:53.470Z,1.35
2023-03-05T12:54:30.352Z,1.08
2023-03-05T12:57:14.944Z,0.90
2023-03-05T13:00:09.949Z,1.00
2023-03-05T13:02:45.684Z,1.23
2023-03-05T13:05:25.621Z,0.80
2023-03-05T13:08:12.876Z,0.88
2023-03-05T13:10:52.508Z,0.90
2023-03-05T13:13:25.877Z,1.33
2023-03-05T13:15:57.511Z,0.93
2023-03-05T13:18:30.272Z,0.70
2023-03-05T13:21:18.083Z,0.75
2023-03-05T13:23:58.215Z,1.33
2023-03-05T13:26:38.993Z,0.98
2023-03-05T13:29:14.927Z,0.77
2023-03-05T13:31:47.067Z,1.67
2023-03-05T13:34:44.642Z,1.50
2023-03-05T13:37:21.915Z,1.10
2023-03-05T13:40:00.191Z,0.98
2023-03-05T13:42:34.776Z,3.22
2023-03-05T13:45:20.667Z,1.45
2023-03-05T13:47:58.231Z,0.68
2023-03-05T13:50:29.951Z,0.93
2023-03-05T13:53:22.015Z,0.90
2023-03-05T13:55:56.403Z,1.90
2023-03-05T13:58:55.510Z,2.30
2023-03-05T14:01:40.919Z,1.75
2023-03-05T14:04:13.846Z,2.83
2023-03-05T14:06:56.094Z,0.90
2023-03-05T14:09:30.091Z,1.40
2023-03-05T14:12:00.210Z,1.30
2023-03-05T14:14:34.767Z,1.60
2023-03-05T14:17:26.188Z,1.35
2023-03-05T14:20:14.814Z,0.90
2023-03-05T14:22:48.313Z,1.23
2023-03-05T14:25:27.402Z,1.60
2023-03-05T14:27:58.411Z,0.82
2023-03-05T14:30:31.102Z,1.13
2023-03-05T14:33:02.847Z,7.00
2023-03-05T14:35:34.207Z,5.00
2023-03-05T14:38:05.079Z,2.28
2023-03-05T14:40:36.594Z,1.60
2023-03-05T14:43:10.815Z,1.42
2023-03-05T14:45:44.002Z,1.40
2023-03-05T14:48:18.913Z,1.08
2023-03-05T14:50:54.685Z,1.00
2023-03-05T14:53:35.504Z,0.80
2023-03-05T14:56:22.437Z,1.55
2023-03-05T14:58:53.187Z,3.20
2023-03-05T15:01:25.178Z,1.30
2023-03-05T15:03:55.567Z,1.70
2023-03-05T15:06:33.298Z,1.20
2023-03-05T15:09:05.043Z,2.25
2023-03-05T15:11:35.247Z,1.13
2023-03-05T15:14:05.401Z,1.90
2023-03-05T15:16:35.632Z,1.90
2023-03-05T15:19:05.791Z,1.60
2023-03-05T15:21:37.203Z,1.70
2023-03-05T15:24:10.125Z,0.85
2023-03-05T15:26:41.017Z,1.30
2023-03-05T15:29:11.131Z,1.27
2023-03-05T15:31:41.352Z,1.52
2023-03-05T15:34:11.763Z,1.50
2023-03-05T15:36:41.940Z,1.40
2023-03-05T15:39:12.096Z,1.30
2023-03-05T15:41:42.299Z,1.50
2023-03-05T15:44:12.375Z,2.10
2023-03-05T15:46:42.678Z,1.50
2023-03-05T15:49:13.643Z,1.70
2023-03-05T15:51:43.928Z,1.35
2023-03-05T15:54:14.169Z,1.00
2023-03-05T15:56:44.380Z,1.35
2023-03-05T15:59:15.042Z,0.98
2023-03-05T16:01:50.140Z,1.23
2023-03-05T16:04:20.469Z,1.38
2023-03-05T16:06:51.683Z,1.70
2023-03-05T16:09:22.744Z,1.83
2023-03-05T16:11:53.428Z,1.42
2023-03-05T16:14:26.798Z,1.40
2023-03-05T16:16:59.547Z,2.13
2023-03-05T16:19:30.859Z,2.55
2023-03-05T16:22:01.342Z,3.53
2023-03-05T16:24:33.429Z,5.10
2023-03-05T16:27:04.941Z,5.25
2023-03-05T16:29:35.182Z,4.38
2023-03-05T16:32:06.205Z,4.13
2023-03-05T16:34:36.647Z,4.68
2023-03-05T16:37:07.414Z,4.10
2023-03-05T16:39:37.812Z,2.95
2023-03-05T16:42:12.658Z,5.05
2023-03-05T16:44:44.009Z,8.57
2023-03-05T16:47:14.293Z,6.70
2023-03-05T16:49:44.892Z,6.65
2023-03-05T16:52:27.461Z,5.22
2023-03-05T16:55:00.009Z,6.63
2023-03-05T16:57:30.392Z,5.97
2023-03-05T17:00:07.596Z,5.88
2023-03-05T17:02:42.222Z,5.70
2023-03-05T17:05:12.416Z,4.38
2023-03-05T17:07:42.609Z,8.52
2023-03-05T17:10:15.433Z,6.38
2023-03-05T17:12:47.621Z,5.90
2023-03-05T17:15:17.807Z,6.20
2023-03-05T17:17:48.054Z,4.82
2023-03-05T17:20:20.300Z,4.45
2023-03-05T17:22:50.455Z,6.05
2023-03-05T17:25:26.546Z,6.50
2023-03-05T17:27:57.049Z,5.57
2023-03-05T17:30:28.536Z,5.72
2023-03-05T17:32:58.733Z,7.03
2023-03-05T17:35:29.670Z,6.03
2023-03-05T17:37:59.887Z,5.25
2023-03-05T17:40:30.230Z,8.80
2023-03-05T17:43:01.011Z,10.60
2023-03-05T17:45:32.066Z,6.03
2023-03-05T17:48:02.544Z,5.15
2023-03-05T17:50:32.750Z,6.10
2023-03-05T17:53:02.959Z,4.03
2023-03-05T17:55:33.703Z,3.60
2023-03-05T17:58:03.954Z,3.92
2023-03-05T18:00:35.546Z,8.30
2023-03-05T18:03:05.956Z,4.68
2023-03-05T18:05:36.441Z,5.18
2023-03-05T18:08:07.017Z,6.53
2023-03-05T18:10:37.291Z,5.15
2023-03-05T18:13:07.727Z,3.03
2023-03-05T18:15:40.662Z,2.80
2023-03-05T18:18:10.931Z,2.70
2023-03-05T18:20:43.241Z,2.25
2023-03-05T18:23:13.976Z,2.78
2023-03-05T18:25:45.454Z,2.30
2023-03-05T18:28:18.002Z,2.03
2023-03-05T18:30:49.633Z,2.20
2023-03-05T18:33:25.792Z,2.25
2023-03-05T18:36:01.586Z,1.90
2023-03-05T18:38:32.614Z,2.60
2023-03-05T18:41:04.422Z,2.70
2023-03-05T18:43:36.255Z,4.97
2023-03-05T18:46:09.182Z,6.55
2023-03-05T18:48:40.271Z,4.47
2023-03-05T18:51:15.717Z,5.68
2023-03-05T18:53:50.622Z,4.65
2023-03-05T18:56:21.896Z,6.15
2023-03-05T18:58:52.866Z,4.30
2023-03-05T19:01:23.224Z,4.20
2023-03-05T19:03:53.849Z,3.03
2023-03-05T19:06:24.237Z,3.47
2023-03-05T19:08:57.615Z,4.88
2023-03-05T19:11:28.043Z,7.88
2023-03-05T19:13:58.667Z,7.60
2023-03-05T19:16:36.915Z,10.23
2023-03-05T19:19:16.851Z,9.35
2023-03-05T19:21:53.765Z,9.45
2023-03-05T19:24:25.572Z,9.75
2023-03-05T19:27:00.422Z,11.38
2023-03-05T19:29:33.102Z,9.43
2023-03-05T19:32:05.385Z,21.27
2023-03-05T19:34:36.230Z,11.27
2023-03-05T19:37:06.821Z,9.63
2023-03-05T19:39:37.267Z,7.50
2023-03-05T19:42:07.943Z,8.82
2023-03-05T19:44:38.162Z,7.03
2023-03-05T19:47:09.373Z,5.53
2023-03-05T19:49:39.628Z,5.72
2023-03-05T19:52:09.814Z,5.40
2023-03-05T19:54:40.074Z,9.90
2023-03-05T19:57:10.553Z,14.68
2023-03-05T19:59:41.031Z,18.00
2023-03-05T20:02:12.348Z,14.43
2023-03-05T20:04:42.540Z,10.05
2023-03-05T20:07:12.793Z,7.15
2023-03-05T20:09:42.988Z,6.00
2023-03-05T20:12:13.204Z,6.13
2023-03-05T20:14:43.424Z,5.07
2023-03-05T20:17:15.807Z,4.90
2023-03-05T20:19:46.926Z,7.18
2023-03-05T20:22:17.181Z,4.40
2023-03-05T20:24:47.496Z,4.30
2023-03-05T20:27:17.722Z,3.45
2023-03-05T20:29:47.905Z,4.75
2023-03-05T20:32:19.436Z,6.55
2023-03-05T20:34:51.353Z,5.68
2023-03-05T20:37:21.649Z,4.28
2023-03-05T20:39:53.122Z,3.92
2023-03-05T20:42:23.445Z,4.80
2023-03-05T20:45:20.306Z,6.30
2023-03-05T20:48:16.890Z,5.13
2023-03-05T20:50:47.409Z,6.35
2023-03-05T20:53:17.708Z,5.60
2023-03-05T20:55:48.060Z,7.95
2023-03-05T20:58:18.174Z,8.75
2023-03-05T21:00:48.412Z,12.73
2023-03-05T21:03:18.864Z,9.30
2023-03-05T21:05:49.289Z,9.75
2023-03-05T21:08:19.519Z,11.60
2023-03-05T21:10:49.775Z,12.60
2023-03-05T21:13:21.333Z,9.45
2023-03-05T21:15:51.991Z,9.23
2023-03-05T21:18:22.177Z,9.20
2023-03-05T21:20:52.393Z,8.85
2023-03-05T21:23:23.084Z,8.07
2023-03-05T21:25:53.630Z,6.45
2023-03-05T21:28:23.959Z,9.13
2023-03-05T21:30:54.754Z,7.43
2023-03-05T21:33:30.134Z,6.05
2023-03-05T21:36:00.338Z,6.20
2023-03-05T21:38:31.041Z,5.95
2023-03-05T21:41:02.900Z,8.60
2023-03-05T21:43:34.164Z,5.50
2023-03-05T21:46:06.854Z,7.10
2023-03-05T21:48:37.548Z,6.15
2023-03-05T21:51:09.276Z,24.73
2023-03-05T21:53:39.930Z,13.15
2023-03-05T21:56:19.701Z,7.85
2023-03-05T21:58:50.188Z,6.25
2023-03-05T22:01:21.379Z,6.43
2023-03-05T22:03:51.924Z,6.68
2023-03-05T22:06:22.320Z,7.53
2023-03-05T22:09:01.181Z,8.27
2023-03-05T22:11:34.259Z,7.32
2023-03-05T22:14:04.422Z,7.18
2023-03-05T22:16:34.960Z,7.32
2023-03-05T22:19:05.989Z,5.32
2023-03-05T22:21:40.339Z,6.25
2023-03-05T22:24:11.731Z,3.90
2023-03-05T22:26:42.017Z,5.65
2023-03-05T22:29:13.209Z,5.43
2023-03-05T22:31:44.451Z,4.28
2023-03-05T22:34:15.208Z,5.78
2023-03-05T22:36:45.392Z,6.45
2023-03-05T22:39:18.616Z,5.93
2023-03-05T22:41:48.842Z,6.30
2023-03-05T22:44:18.960Z,4.07
2023-03-05T22:46:59.224Z,3.95
2023-03-05T22:49:29.504Z,4.32
2023-03-05T22:51:59.945Z,3.95
2023-03-05T22:54:30.197Z,4.00
2023-03-05T22:57:00.418Z,4.88
2023-03-05T22:59:38.043Z,6.57
2023-03-05T23:02:08.395Z,6.53
2023-03-05T23:04:49.757Z,4.88
2023-03-05T23:07:25.501Z,4.97
2023-03-05T23:10:12.940Z,4.22
2023-03-05T23:12:49.636Z,7.45
2023-03-05T23:15:39.293Z,11.30
2023-03-05T23:18:13.887Z,4.20
2023-03-05T23:20:53.779Z,3.75
2023-03-05T23:23:24.016Z,3.60
2023-03-05T23:25:54.237Z,3.13
2023-03-05T23:28:24.419Z,2.50
2023-03-05T23:30:54.715Z,2.92
2023-03-05T23:33:25.198Z,2.75
2023-03-05T23:35:58.525Z,3.42
2023-03-05T23:38:30.145Z,4.00
2023-03-05T23:41:03.607Z,2.83
2023-03-05T23:43:33.886Z,4.38
2023-03-05T23:46:11.800Z,2.88
2023-03-05T23:48:42.161Z,3.53
2023-03-05T23:51:12.336Z,2.67
2023-03-05T23:53:42.551Z,2.20
2023-03-05T23:56:12.673Z,2.47
2023-03-05T23:58:42.979Z,2.47
